Time;durP1;ratioP1;P1;durP2;ratioP2;P2;SDS_P1;SDS_P2;PMS_P1;PMS_P2;Temp;Humidity;BMP_temperature;BMP_pressure;BME280_temperature;BME280_humidity;BME280_pressure;Samples;Min_cycle;Max_cycle;Signal;HPM_P1;HPM_P2
2022/07/20 00:00:23;;;;;;;3.72;3.40;;;;;;;15.68;86.09;99930.66;1819985;78;21169;-76
2022/07/20 00:02:50;;;;;;;5.45;2.87;;;;;;;15.66;85.69;99929.88;1819559;78;21000;-76
2022/07/20 00:05:16;;;;;;;5.62;2.80;;;;;;;15.60;85.00;99929.25;1819763;78;21492;-76
2022/07/20 00:07:43;;;;;;;4.05;3.62;;;;;;;15.57;84.41;99931.20;1819550;78;20968;-76
2022/07/20 00:12:55;;;;;;;;;;;;;;;15.51;84.47;99925.70;1822241;78;21114;-77
2022/07/20 00:15:21;;;;;;;4.30;3.87;;;;;;;15.50;84.84;99928.42;1819786;78;20194;-76
2022/07/20 00:17:48;;;;;;;4.33;3.35;;;;;;;15.45;85.19;99924.70;1819799;78;21094;-76
2022/07/20 00:20:15;;;;;;;4.20;3.80;;;;;;;15.41;85.20;99929.26;1819398;78;20956;-76
2022/07/20 00:22:41;;;;;;;5.92;3.95;;;;;;;15.41;85.76;99929.73;1820058;78;21030;-77
2022/07/20 00:25:08;;;;;;;4.67;3.90;;;;;;;15.43;86.47;99925.21;1819373;78;21550;-76
2022/07/20 00:27:35;;;;;;;3.55;3.25;;;;;;;15.45;87.20;99924.70;1819784;78;21075;-77
2022/07/20 00:30:03;;;;;;;4.12;3.72;;;;;;;15.45;87.00;99925.14;1819506;78;21189;-76
2022/07/20 00:32:29;;;;;;;5.55;3.70;;;;;;;15.41;86.43;99921.30;1819729;78;21082;-76
2022/07/20 00:34:56;;;;;;;5.20;3.80;;;;;;;15.42;86.35;99918.21;1819680;78;21085;-76
2022/07/20 00:37:22;;;;;;;6.25;3.98;;;;;;;15.42;87.28;99914.23;1813377;78;21028;-76
2022/07/20 00:39:49;;;;;;;5.45;3.80;;;;;;;15.36;87.89;99907.41;1805447;78;21051;-76
2022/07/20 00:42:15;;;;;;;4.60;4.20;;;;;;;15.34;88.43;99912.41;1804843;78;21601;-76
2022/07/20 00:44:42;;;;;;;4.67;4.00;;;;;;;15.31;88.88;99913.88;1804948;79;21008;-76
2022/07/20 00:47:08;;;;;;;6.00;4.12;;;;;;;15.29;89.34;99913.09;1804898;79;21093;-76
2022/07/20 00:49:35;;;;;;;4.55;4.15;;;;;;;15.22;89.71;99905.43;1804955;79;21024;-76
2022/07/20 00:52:02;;;;;;;5.37;3.60;;;;;;;15.19;90.28;99908.22;1804814;79;20933;-76
2022/07/20 00:54:28;;;;;;;7.97;4.28;;;;;;;15.17;90.79;99908.77;1830858;78;21129;-76
2022/07/20 00:56:55;;;;;;;4.80;4.40;;;;;;;15.13;91.20;99904.55;1838075;77;21035;-77
2022/07/20 00:59:22;;;;;;;8.10;4.60;;;;;;;15.10;91.53;99906.02;1837650;78;21070;-76
2022/07/20 01:01:48;;;;;;;5.17;4.35;;;;;;;15.05;91.81;99913.33;1768861;81;21044;-76
2022/07/20 01:04:15;;;;;;;5.35;4.20;;;;;;;15.00;91.97;99910.89;1794680;79;21684;-76
2022/07/20 01:06:42;;;;;;;5.62;4.08;;;;;;;14.99;92.04;99914.93;1767008;80;22159;-77
2022/07/20 01:09:09;;;;;;;8.08;4.33;;;;;;;14.96;92.08;99908.44;1805000;79;21629;-76
2022/07/20 01:11:36;;;;;;;6.60;4.30;;;;;;;14.96;92.10;99911.09;1804664;79;21527;-76
2022/07/20 01:14:05;;;;;;;4.75;4.30;;;;;;;14.95;92.01;99911.56;1804692;78;21059;-76
2022/07/20 01:16:33;;;;;;;6.08;4.10;;;;;;;14.95;91.85;99906.27;1805111;78;21003;-77
2022/07/20 01:18:59;;;;;;;11.25;4.20;;;;;;;14.98;91.64;99906.61;1804690;79;21126;-77
2022/07/20 01:21:27;;;;;;;6.58;4.22;;;;;;;14.96;91.36;99907.12;1804568;79;21027;-76
2022/07/20 01:23:53;;;;;;;8.20;4.25;;;;;;;14.93;91.34;99911.23;1805064;79;21112;-76
2022/07/20 01:26:20;;;;;;;6.85;4.20;;;;;;;14.92;91.34;99908.20;1805026;79;20984;-76
2022/07/20 01:28:47;;;;;;;5.37;4.20;;;;;;;14.92;91.39;99900.26;1805120;78;20904;-76
2022/07/20 01:31:13;;;;;;;6.28;4.17;;;;;;;14.93;91.38;99905.48;1804996;79;21737;-76
2022/07/20 01:33:40;;;;;;;4.10;3.80;;;;;;;14.93;91.02;99907.25;1804861;79;21529;-76
2022/07/20 01:36:09;;;;;;;4.20;3.80;;;;;;;14.92;90.96;99905.55;1804974;78;20983;-76
2022/07/20 01:38:35;;;;;;;5.60;4.28;;;;;;;14.94;90.59;99907.66;1805076;78;21550;-76
2022/07/20 01:41:01;;;;;;;5.08;3.77;;;;;;;14.93;90.56;99904.61;1804666;78;21082;-76
2022/07/20 01:43:28;;;;;;;6.78;4.30;;;;;;;14.93;90.42;99908.58;1805043;79;21117;-76
2022/07/20 01:45:55;;;;;;;4.60;4.20;;;;;;;14.91;90.46;99909.13;1804816;78;21118;-76
2022/07/20 01:48:23;;;;;;;4.87;4.00;;;;;;;14.91;90.48;99913.09;1804868;78;21019;-76
2022/07/20 01:50:49;;;;;;;6.80;3.98;;;;;;;14.89;90.51;99909.66;1804943;79;21030;-76
2022/07/20 01:53:16;;;;;;;5.20;4.17;;;;;;;14.86;90.57;99908.89;1805057;78;21055;-77
2022/07/20 01:55:42;;;;;;;4.65;4.15;;;;;;;14.85;90.69;99901.86;1805337;78;21052;-76
2022/07/20 01:58:09;;;;;;;8.68;4.78;;;;;;;14.84;90.69;99905.45;1804957;78;21376;-77
2022/07/20 02:00:35;;;;;;;4.22;3.90;;;;;;;14.85;90.66;99908.48;1805082;79;21022;-76
2022/07/20 02:03:02;;;;;;;5.45;4.60;;;;;;;14.82;90.75;99911.27;1804748;79;20944;-76
2022/07/20 02:05:30;;;;;;;4.85;4.22;;;;;;;14.79;90.99;99915.84;1804985;79;20972;-76
2022/07/20 02:07:58;;;;;;;4.95;4.47;;;;;;;14.76;91.04;99918.19;1804947;78;21074;-77
2022/07/20 02:10:24;;;;;;;5.30;4.50;;;;;;;14.76;91.11;99911.56;1804981;79;20943;-76
2022/07/20 02:12:52;;;;;;;4.47;4.08;;;;;;;14.77;91.04;99909.29;1805020;79;21427;-76
2022/07/20 02:18:08;;;;;;;4.50;4.10;;;;;;;14.73;90.95;99913.50;1805366;78;21483;-76
2022/07/20 02:20:34;;;;;;;4.55;4.15;;;;;;;14.69;90.97;99910.09;1805266;79;21541;-77
2022/07/20 02:23:03;;;;;;;5.30;3.80;;;;;;;14.69;91.01;99911.42;1804769;78;21003;-76
2022/07/20 02:25:29;;;;;;;4.90;3.77;;;;;;;14.69;91.00;99914.07;1804989;79;21542;-76
2022/07/20 02:27:56;;;;;;;4.97;4.35;;;;;;;14.67;90.87;99911.49;1804976;78;21129;-76
2022/07/20 02:30:23;;;;;;;5.40;3.83;;;;;;;14.69;90.77;99919.37;1805114;78;21055;-76
2022/07/20 02:32:49;;;;;;;5.25;4.75;;;;;;;14.68;90.86;99913.22;1804892;78;21097;-77
2022/07/20 02:35:16;;;;;;;10.98;9.78;;;;;;;14.64;90.97;99912.09;1804918;79;21089;-76
2022/07/20 02:37:43;;;;;;;13.83;10.75;;;;;;;14.59;91.16;99918.06;1805129;79;21019;-76
2022/07/20 02:40:10;;;;;;;11.63;9.48;;;;;;;14.53;91.44;99917.86;1805333;79;21050;-76
2022/07/20 02:42:37;;;;;;;5.95;5.40;;;;;;;14.52;91.62;99921.89;1805541;79;21039;-76
2022/07/20 02:45:05;;;;;;;8.80;6.17;;;;;;;14.52;91.67;99917.45;1805705;78;21104;-76
2022/07/20 02:47:44;;;;;;;7.58;5.80;;;;;;;14.53;91.68;99917.86;1805550;79;21027;-76
2022/07/20 02:50:11;;;;;;;9.98;6.33;;;;;;;14.53;91.68;99920.98;1805733;79;21054;-76
2022/07/20 02:52:41;;;;;;;12.33;6.12;;;;;;;14.52;91.74;99919.25;1831936;78;21475;-77
2022/07/20 02:55:09;;;;;;;13.35;5.70;;;;;;;14.52;91.76;99919.25;1838433;78;21066;-76
2022/07/20 02:57:35;;;;;;;20.37;6.00;;;;;;;14.46;91.90;99915.09;1838512;78;21099;-76
2022/07/20 03:00:04;;;;;;;12.23;6.30;;;;;;;14.41;92.38;99917.94;1838754;78;21058;-76
2022/07/20 03:02:31;;;;;;;6.47;5.53;;;;;;;14.37;92.75;99917.66;1838496;78;21015;-76
2022/07/20 03:04:57;;;;;;;6.90;5.60;;;;;;;14.37;92.94;99918.98;1830570;78;21110;-76
2022/07/20 03:07:25;;;;;;;9.80;5.50;;;;;;;14.36;93.07;99913.31;1805631;78;21041;-76
2022/07/20 03:09:52;;;;;;;7.47;5.30;;;;;;;14.36;93.16;99917.28;1805625;79;21116;-76
2022/07/20 03:12:19;;;;;;;5.92;5.42;;;;;;;14.34;93.47;99917.81;1805554;78;21002;-76
2022/07/20 03:14:46;;;;;;;9.98;5.50;;;;;;;14.32;93.80;99911.70;1805569;78;21007;-76
2022/07/20 03:17:15;;;;;;;8.65;5.47;;;;;;;14.33;94.23;99909.47;1805381;79;21065;-76
2022/07/20 03:19:41;;;;;;;8.25;5.50;;;;;;;14.32;94.52;99913.03;1805959;78;21104;-76
2022/07/20 03:22:08;;;;;;;6.53;5.45;;;;;;;14.31;94.81;99913.98;1805415;78;21497;-77
2022/07/20 03:24:35;;;;;;;6.30;5.50;;;;;;;14.33;95.08;99913.44;1805638;78;21052;-76
2022/07/20 03:30:20;;;;;;;10.50;7.17;;;;;;;14.40;95.47;99920.65;1749995;80;21178;-75
2022/07/20 03:32:46;;;;;;;12.95;7.22;;;;;;;14.43;95.91;99922.69;1808411;79;21102;-74
2022/07/20 03:35:14;;;;;;;10.85;7.90;;;;;;;14.44;96.42;99928.39;1808502;79;21214;-76
2022/07/20 03:37:40;;;;;;;12.10;7.17;;;;;;;14.46;96.97;99931.83;1808377;79;21118;-75
2022/07/20 03:40:07;;;;;;;12.28;6.72;;;;;;;14.53;97.37;99924.48;1808475;79;21106;-75
2022/07/20 03:42:34;;;;;;;9.45;6.28;;;;;;;14.60;97.66;99922.45;1772910;80;21043;-75
2022/07/20 03:45:02;;;;;;;7.35;5.58;;;;;;;14.67;98.02;99931.36;1748911;81;21446;-75
2022/07/20 03:47:28;;;;;;;8.50;5.35;;;;;;;14.75;98.19;99931.02;1772714;80;21545;-75
2022/07/20 03:49:55;;;;;;;5.22;4.75;;;;;;;14.82;98.45;99924.98;1772997;80;21499;-75
2022/07/20 03:52:21;;;;;;;5.80;4.72;;;;;;;14.91;98.67;99922.38;1772953;80;21071;-75
2022/07/20 03:54:48;;;;;;;7.87;4.58;;;;;;;14.98;98.86;99922.50;1773108;80;21019;-74
2022/07/20 07:14:04;;;;;;;5.83;2.80;;;;;;;20.72;72.48;99732.38;1813941;78;22769;-76
2022/07/20 07:16:30;;;;;;;3.25;2.65;;;;;;;20.80;70.95;99729.16;1787155;80;21079;-76
2022/07/20 07:18:58;;;;;;;4.17;2.70;;;;;;;20.92;69.65;99721.55;1773760;80;21146;-76
2022/07/20 07:21:25;;;;;;;5.33;3.00;;;;;;;21.02;69.96;99710.52;1755822;81;21094;-76
2022/07/20 07:23:52;;;;;;;2.92;2.70;;;;;;;21.14;69.28;99713.60;1756489;81;21094;-76
2022/07/20 07:26:20;;;;;;;2.98;2.67;;;;;;;21.25;68.72;99713.27;1756024;81;21024;-75
2022/07/20 07:28:48;;;;;;;5.67;2.90;;;;;;;21.36;68.73;99705.28;1755910;81;20959;-77
2022/07/20 07:31:17;;;;;;;4.42;2.85;;;;;;;21.48;67.31;99701.69;1756034;81;21136;-76
2022/07/20 07:33:44;;;;;;;5.25;3.35;;;;;;;21.59;67.47;99698.20;1755717;81;22225;-76
2022/07/20 07:36:11;;;;;;;3.95;2.87;;;;;;;21.66;66.06;99694.06;1756323;81;21093;-75
2022/07/20 07:38:37;;;;;;;4.12;3.17;;;;;;;21.70;66.02;99694.20;1755882;81;21032;-76
2022/07/20 07:41:04;;;;;;;5.85;2.70;;;;;;;21.70;65.43;99681.28;1755983;81;21538;-76
2022/07/20 07:43:32;;;;;;;4.37;3.30;;;;;;;21.67;65.13;99688.20;1756341;81;21119;-75
2022/07/20 07:45:58;;;;;;;5.90;3.15;;;;;;;21.65;64.42;99687.02;1755906;81;21001;-76
2022/07/20 07:48:26;;;;;;;5.58;2.75;;;;;;;21.65;65.60;99682.13;1756145;81;21086;-75
2022/07/20 07:50:53;;;;;;;4.60;3.08;;;;;;;21.71;65.95;99685.67;1756055;81;21071;-76
2022/07/20 07:53:19;;;;;;;2.80;2.60;;;;;;;21.78;64.23;99676.17;1756104;81;21055;-77
2022/07/20 07:55:46;;;;;;;7.22;3.08;;;;;;;21.85;64.20;99675.20;1755756;81;21115;-76
2022/07/20 07:58:13;;;;;;;3.60;3.30;;;;;;;21.86;64.02;99675.09;1755810;81;21004;-76
2022/07/20 08:00:40;;;;;;;8.13;3.00;;;;;;;21.90;63.01;99666.31;1756508;81;21557;-76
2022/07/20 08:03:07;;;;;;;4.87;3.00;;;;;;;21.92;63.19;99660.84;1756043;81;21640;-76
2022/07/20 08:05:33;;;;;;;4.47;3.42;;;;;;;21.95;63.10;99669.98;1755971;81;21636;-76
2022/07/20 08:08:12;;;;;;;4.75;3.12;;;;;;;21.96;63.13;99668.52;1755822;81;21193;-75
2022/07/20 08:10:40;;;;;;;3.90;3.33;;;;;;;22.00;63.07;99666.44;1755782;81;21067;-76
2022/07/20 08:13:08;;;;;;;4.17;3.10;;;;;;;22.10;61.97;99673.27;1749336;81;21728;-76
2022/07/20 08:15:34;;;;;;;4.03;3.08;;;;;;;22.24;63.51;99664.48;1743014;82;21641;-76
2022/07/20 08:18:03;;;;;;;7.28;3.83;;;;;;;22.48;62.02;99660.80;1743137;81;21036;-76
2022/07/20 08:20:30;;;;;;;6.05;3.17;;;;;;;22.67;61.48;99651.24;1742893;81;21100;-75
2022/07/20 08:22:57;;;;;;;4.05;3.20;;;;;;;22.82;61.53;99639.23;1743159;82;20997;-76
2022/07/20 08:25:23;;;;;;;5.70;3.42;;;;;;;22.95;61.37;99649.79;1742346;82;21131;-76
2022/07/20 08:27:50;;;;;;;4.70;3.20;;;;;;;23.04;60.42;99642.78;1742155;81;21084;-76
2022/07/20 08:30:17;;;;;;;4.40;2.87;;;;;;;23.14;58.02;99633.84;1742700;82;21008;-75
2022/07/20 08:32:43;;;;;;;4.20;3.30;;;;;;;23.20;58.13;99631.14;1742335;81;21105;-76
2022/07/20 08:35:10;;;;;;;4.03;3.27;;;;;;;23.23;58.44;99633.54;1742372;81;21052;-76
2022/07/20 08:37:40;;;;;;;2.85;2.65;;;;;;;23.21;56.64;99632.83;1742443;82;20965;-76
2022/07/20 08:40:08;;;;;;;3.50;2.87;;;;;;;23.21;58.24;99622.59;1742508;81;21102;-76
2022/07/20 08:42:34;;;;;;;5.58;2.92;;;;;;;23.20;56.88;99619.06;1742327;81;21090;-76
2022/07/20 08:45:02;;;;;;;6.33;3.05;;;;;;;23.11;57.98;99617.16;1742229;82;21159;-76
2022/07/20 08:47:29;;;;;;;7.90;2.90;;;;;;;23.10;58.97;99614.09;1742153;82;21048;-76
2022/07/20 08:49:55;;;;;;;4.40;3.10;;;;;;;23.20;59.37;99598.94;1742463;82;20992;-77
2022/07/20 08:52:22;;;;;;;4.47;3.05;;;;;;;23.31;58.17;99593.47;1742368;82;21173;-77
2022/07/20 08:54:48;;;;;;;4.67;2.60;;;;;;;23.36;57.61;99581.00;1742436;82;21096;-76
2022/07/20 08:57:16;;;;;;;9.95;3.70;;;;;;;23.44;58.52;99592.42;1742169;82;21083;-75
2022/07/20 08:59:44;;;;;;;4.08;3.20;;;;;;;23.55;57.72;99570.36;1742508;82;21003;-76
2022/07/20 09:02:12;;;;;;;4.85;3.00;;;;;;;23.66;56.47;99571.23;1742154;82;21542;-76
2022/07/20 09:04:55;;;;;;;9.35;3.10;;;;;;;23.74;57.76;99569.56;1742365;82;21569;-76
2022/07/20 09:07:41;;;;;;;5.47;2.80;;;;;;;23.84;55.91;99582.20;1742564;82;20993;-76
2022/07/20 09:10:24;;;;;;;5.60;2.85;;;;;;;23.87;55.87;99568.49;1755317;80;21132;-77
2022/07/20 09:13:03;;;;;;;3.20;2.90;;;;;;;23.94;54.42;99557.58;1775007;80;21083;-77
2022/07/20 09:15:49;;;;;;;3.22;2.70;;;;;;;24.06;56.07;99549.73;1781363;80;21008;-77
2022/07/20 09:18:29;;;;;;;2.98;2.65;;;;;;;24.20;54.54;99555.70;1781767;80;21012;-75
2022/07/20 09:21:04;;;;;;;8.08;3.08;;;;;;;24.18;53.89;99540.21;1781595;79;21657;-76
2022/07/20 09:23:46;;;;;;;2.47;2.27;;;;;;;24.08;55.25;99531.62;1768823;80;21089;-76
2022/07/20 09:26:14;;;;;;;3.55;2.90;;;;;;;24.06;55.03;99554.27;1770942;81;21580;-76
2022/07/20 09:28:48;;;;;;;12.18;3.00;;;;;;;24.05;54.86;99549.88;1771266;81;21016;-77
2022/07/20 09:31:29;;;;;;;4.50;2.80;;;;;;;24.08;56.64;99538.84;1770038;81;21641;-76
2022/07/20 09:34:15;;;;;;;4.55;2.80;;;;;;;24.18;55.22;99537.52;1771132;81;21058;-76
2022/07/20 09:36:46;;;;;;;5.67;2.90;;;;;;;24.23;55.09;99532.58;1728398;81;21114;-77
2022/07/20 09:39:14;;;;;;;7.65;2.90;;;;;;;24.23;53.86;99524.00;1770815;81;21004;-77
2022/07/20 09:41:43;;;;;;;3.20;2.62;;;;;;;24.16;54.35;99513.94;1771159;81;21059;-77
2022/07/20 09:44:25;;;;;;;5.60;2.70;;;;;;;24.09;54.18;99507.80;1771318;80;21013;-77
2022/07/20 09:46:52;;;;;;;6.00;3.08;;;;;;;24.08;55.02;99510.63;1769668;81;21590;-76
2022/07/20 09:49:24;;;;;;;6.30;2.95;;;;;;;24.09;54.58;99501.08;1770855;81;21124;-75
2022/07/20 09:51:57;;;;;;;5.25;2.83;;;;;;;24.11;53.91;99499.09;1770269;81;20996;-76
2022/07/20 09:54:24;;;;;;;3.08;2.80;;;;;;;24.15;54.17;99495.63;1771411;81;21440;-76
2022/07/20 09:56:51;;;;;;;4.62;2.98;;;;;;;24.14;54.84;99506.52;1771146;81;21087;-77
2022/07/20 09:59:19;;;;;;;7.85;2.90;;;;;;;24.14;55.12;99479.64;1770964;81;21609;-77
2022/07/20 10:01:49;;;;;;;5.80;2.90;;;;;;;24.17;55.12;99469.95;1771036;81;21918;-77
2022/07/20 10:04:18;;;;;;;3.75;2.70;;;;;;;24.24;55.10;99467.05;1770889;81;21012;-76
2022/07/20 10:06:49;;;;;;;13.78;2.90;;;;;;;24.33;54.42;99462.67;1771082;81;21130;-77
2022/07/20 10:09:17;;;;;;;3.12;2.72;;;;;;;24.41;53.74;99467.69;1771151;81;21087;-77
2022/07/20 10:11:45;;;;;;;3.17;2.80;;;;;;;24.48;54.30;99452.66;1771158;81;21019;-77
2022/07/20 10:14:12;;;;;;;11.70;2.87;;;;;;;24.62;53.61;99445.17;1769064;81;21115;-77
2022/07/20 10:16:47;;;;;;;7.70;2.52;;;;;;;24.76;53.99;99444.69;1767967;81;21225;-76
2022/07/20 10:19:13;;;;;;;8.50;3.13;;;;;;;24.85;53.50;99429.53;1768356;81;21055;-76
2022/07/20 10:21:52;;;;;;;3.00;2.80;;;;;;;24.97;53.47;99439.11;1768323;81;20988;-77
2022/07/20 10:24:27;;;;;;;4.28;2.58;;;;;;;25.09;52.21;99420.92;1767819;81;21087;-77
2022/07/20 10:27:05;;;;;;;5.70;2.90;;;;;;;25.16;51.75;99427.91;1767786;81;21459;-77
2022/07/20 10:29:35;;;;;;;4.95;2.80;;;;;;;25.09;51.44;99423.61;1767988;81;21104;-77
2022/07/20 10:32:16;;;;;;;5.90;3.05;;;;;;;24.94;52.09;99407.61;1768039;80;21004;-76
2022/07/20 10:34:45;;;;;;;2.87;2.60;;;;;;;24.88;53.18;99418.48;1768224;81;21103;-77
2022/07/20 10:37:40;;;;;;;6.35;2.75;;;;;;;24.81;51.89;99404.77;1767855;81;21071;-76
2022/07/20 10:40:21;;;;;;;10.48;2.75;;;;;;;24.80;51.25;99396.84;1767682;81;21084;-76
2022/07/20 10:42:53;;;;;;;4.53;2.62;;;;;;;24.89;52.14;99397.28;1768242;81;21524;-76
2022/07/20 10:45:27;;;;;;;2.85;2.62;;;;;;;25.00;50.77;99374.73;1767866;81;21889;-77
2022/07/20 10:48:14;;;;;;;5.42;2.67;;;;;;;25.06;50.55;99376.80;1768644;80;21099;-77
2022/07/20 10:50:44;;;;;;;5.10;3.17;;;;;;;25.06;51.14;99364.69;1768090;81;21036;-76
2022/07/20 10:53:20;;;;;;;5.83;2.58;;;;;;;25.10;50.77;99390.80;1768192;81;21088;-77
2022/07/20 10:55:52;;;;;;;7.15;3.52;;;;;;;25.10;51.03;99359.37;1767865;81;21052;-77
2022/07/20 10:58:26;;;;;;;9.28;2.72;;;;;;;25.11;51.21;99336.81;1768177;81;21126;-76
2022/07/20 11:00:59;;;;;;;4.45;2.52;;;;;;;25.09;50.99;99344.71;1768171;81;21107;-77
2022/07/20 11:03:36;;;;;;;9.35;3.00;;;;;;;25.09;51.85;99342.02;1768083;81;21479;-77
2022/07/20 11:06:12;;;;;;;7.37;2.50;;;;;;;25.14;50.97;99351.33;1767895;81;22016;-76
2022/07/20 11:08:57;;;;;;;4.95;2.80;;;;;;;25.16;51.89;99341.25;1768211;81;21031;-77
2022/07/20 11:11:33;;;;;;;7.50;2.87;;;;;;;25.24;51.65;99338.32;1768129;81;20996;-77
2022/07/20 11:14:03;;;;;;;3.25;2.87;;;;;;;25.32;51.18;99337.09;1767789;81;21087;-77
2022/07/20 11:16:29;;;;;;;9.95;2.42;;;;;;;25.31;51.02;99329.49;1765173;80;21051;-77
2022/07/20 11:18:58;;;;;;;6.05;2.27;;;;;;;25.28;50.34;99315.49;1769666;80;20912;-77
2022/07/20 11:21:44;;;;;;;2.90;2.58;;;;;;;25.21;50.08;99316.05;1778288;80;21558;-77
2022/07/20 11:24:23;;;;;;;5.17;2.90;;;;;;;25.19;50.90;99314.02;1776916;80;21066;-77
2022/07/20 11:26:50;;;;;;;9.48;2.58;;;;;;;25.23;50.43;99295.72;1778907;80;21079;-77
2022/07/20 11:29:16;;;;;;;4.20;2.50;;;;;;;25.32;50.23;99302.09;1778275;80;21141;-76
2022/07/20 11:31:43;;;;;;;5.45;2.50;;;;;;;25.35;49.82;99296.37;1778799;80;21484;-77
2022/07/20 11:34:12;;;;;;;4.75;2.60;;;;;;;25.39;50.10;99287.00;1778027;80;21047;-76
2022/07/20 11:36:39;;;;;;;6.45;2.37;;;;;;;25.44;49.89;99272.56;1778451;80;21000;-77
2022/07/20 11:39:11;;;;;;;3.20;2.50;;;;;;;25.51;49.70;99266.06;1778284;80;21048;-77
2022/07/20 11:41:41;;;;;;;3.22;2.42;;;;;;;25.58;49.29;99263.08;1778494;80;20984;-77
2022/07/20 11:44:27;;;;;;;11.10;3.08;;;;;;;25.73;50.13;99270.11;1778374;80;21110;-76
2022/07/20 11:46:48;;;;;;;8.83;2.90;;;;;;;25.88;48.08;99287.91;1776521;80;20992;-76
2022/07/20 11:49:15;;;;;;;20.57;3.05;;;;;;;25.89;48.36;99262.15;1778309;80;20992;-77
2022/07/20 11:51:45;;;;;;;6.95;2.45;;;;;;;25.93;48.55;99267.55;1778364;80;21118;-77
2022/07/20 11:54:13;;;;;;;11.33;2.87;;;;;;;26.00;48.34;99254.83;1778416;80;21137;-77
2022/07/20 11:56:40;;;;;;;9.30;2.72;;;;;;;26.05;47.20;99261.94;1723806;80;21137;-77
2022/07/20 11:59:06;;;;;;;14.68;3.10;;;;;;;26.01;46.61;99251.11;1778591;80;21011;-78
2022/07/20 12:01:36;;;;;;;5.50;3.10;;;;;;;25.92;46.36;99261.84;1778401;80;21063;-77
2022/07/20 12:04:06;;;;;;;16.70;2.90;;;;;;;25.93;47.88;99243.80;1778472;80;21477;-77
2022/07/20 12:06:35;;;;;;;6.10;2.67;;;;;;;25.97;47.26;99233.58;1778567;80;21197;-77
2022/07/20 12:09:20;;;;;;;7.05;2.55;;;;;;;25.97;47.20;99233.58;1778322;80;21117;-77
2022/07/20 12:12:06;;;;;;;5.85;3.05;;;;;;;25.90;46.62;99223.39;1778324;80;21647;-77
2022/07/20 12:14:36;;;;;;;;;;;;;;;25.85;47.83;99225.72;1781278;80;21530;-77
2022/07/20 12:17:15;;;;;;;4.80;2.80;;;;;;;25.85;47.86;99221.67;1778358;80;20188;-76
2022/07/20 12:19:43;;;;;;;4.90;2.95;;;;;;;25.87;47.33;99210.26;1778405;80;21024;-77
2022/07/20 12:22:18;;;;;;;8.63;2.95;;;;;;;25.95;47.25;99218.40;1778793;80;21644;-77
2022/07/20 12:25:06;;;;;;;2.92;2.62;;;;;;;26.01;46.22;99201.24;1778545;80;21063;-77
2022/07/20 12:27:35;;;;;;;4.22;2.98;;;;;;;25.99;46.27;99193.83;1778646;80;21023;-76
2022/07/20 12:30:28;;;;;;;4.22;2.60;;;;;;;26.00;46.75;99186.92;1778602;80;21051;-76
2022/07/20 12:33:14;;;;;;;19.23;3.40;;;;;;;26.13;47.60;99175.71;1778349;80;21094;-77
2022/07/20 12:35:44;;;;;;;4.50;2.62;;;;;;;26.41;46.97;99168.72;1778679;80;21798;-77
2022/07/20 12:38:13;;;;;;;9.55;2.98;;;;;;;26.59;44.34;99186.98;1778355;80;21055;-76
2022/07/20 12:40:48;;;;;;;5.65;2.52;;;;;;;26.67;45.71;99174.07;1778437;80;21122;-78
2022/07/20 12:43:35;;;;;;;5.22;2.58;;;;;;;26.74;44.75;99170.20;1778489;80;21047;-78
2022/07/20 12:46:10;;;;;;;7.10;3.55;;;;;;;26.72;44.55;99164.14;1778439;80;21325;-76
2022/07/20 12:48:38;;;;;;;7.10;2.65;;;;;;;26.68;45.50;99169.02;1778392;80;21741;-77
2022/07/20 12:51:07;;;;;;;10.85;2.75;;;;;;;26.62;44.34;99156.98;1778243;80;21087;-77
2022/07/20 12:53:36;;;;;;;8.05;2.60;;;;;;;26.60;44.38;99146.87;1778345;80;22197;-76
2022/07/20 12:56:04;;;;;;;4.95;2.95;;;;;;;26.59;44.40;99150.56;1778429;80;20984;-77
2022/07/20 12:58:30;;;;;;;5.83;2.95;;;;;;;26.51;44.52;99143.80;1778532;80;21055;-77
2022/07/20 13:00:57;;;;;;;8.68;2.98;;;;;;;26.35;44.72;99123.55;1778422;80;21130;-76
2022/07/20 13:03:24;;;;;;;5.87;2.85;;;;;;;26.24;44.88;99124.67;1778454;80;21025;-77
2022/07/20 13:05:51;;;;;;;23.70;18.10;;;;;;;26.16;45.06;99103.07;1778690;80;21592;-77
2022/07/20 13:08:19;;;;;;;7.97;5.08;;;;;;;26.23;44.42;99109.52;1778435;80;21102;-77
2022/07/20 13:10:45;;;;;;;14.25;5.72;;;;;;;26.45;44.07;99124.25;1778298;80;21079;-77
2022/07/20 13:13:13;;;;;;;9.53;4.22;;;;;;;26.72;44.22;99103.41;1778203;80;21122;-77
2022/07/20 13:15:39;;;;;;;6.75;3.00;;;;;;;27.02;44.55;99100.55;1783186;80;21039;-77
2022/07/20 13:18:09;;;;;;;5.78;2.52;;;;;;;27.32;43.51;99084.19;1780870;80;21095;-77
2022/07/20 13:20:38;;;;;;;5.28;2.77;;;;;;;27.54;42.46;99077.72;1781074;80;20987;-77
2022/07/20 13:23:05;;;;;;;5.90;3.20;;;;;;;27.66;41.16;99070.09;1779768;80;20978;-77
2022/07/20 13:25:32;;;;;;;14.55;4.20;;;;;;;27.63;42.18;99080.72;1761170;81;21116;-77
2022/07/20 13:27:59;;;;;;;5.53;3.40;;;;;;;27.58;41.47;99068.23;1763243;81;21039;-77
2022/07/20 13:30:26;;;;;;;5.17;3.22;;;;;;;27.48;41.83;99068.43;1763330;81;21087;-77
2022/07/20 13:32:53;;;;;;;18.12;3.00;;;;;;;27.36;41.86;99075.23;1763395;81;21067;-77
2022/07/20 13:35:20;;;;;;;6.87;3.00;;;;;;;27.18;41.28;99078.09;1763402;81;21020;-77
2022/07/20 13:37:46;;;;;;;13.50;2.90;;;;;;;27.01;42.32;99075.39;1763080;81;21854;-77
2022/07/20 13:40:14;;;;;;;4.08;2.15;;;;;;;26.89;42.54;99086.20;1763151;81;20981;-77
2022/07/20 13:42:42;;;;;;;13.38;2.83;;;;;;;26.76;41.81;99077.25;1762970;81;21032;-77
2022/07/20 13:45:09;;;;;;;6.28;2.35;;;;;;;26.64;42.44;99078.09;1763171;81;21123;-77
2022/07/20 13:47:38;;;;;;;3.50;2.37;;;;;;;26.59;43.96;99076.88;1763517;81;21068;-76
2022/07/20 13:50:06;;;;;;;7.15;2.45;;;;;;;26.53;45.58;99080.23;1762992;81;21071;-77
2022/07/20 13:52:32;;;;;;;3.47;2.22;;;;;;;26.45;46.43;99078.39;1763240;81;21048;-77
2022/07/20 13:54:59;;;;;;;9.48;2.30;;;;;;;26.34;46.91;99072.78;1762916;81;21075;-77
2022/07/20 13:57:26;;;;;;;4.20;2.92;;;;;;;26.25;47.03;99073.27;1762885;81;21098;-77
2022/07/20 13:59:53;;;;;;;4.42;2.30;;;;;;;26.23;47.19;99079.86;1762983;81;21094;-75
2022/07/20 14:02:19;;;;;;;4.62;2.85;;;;;;;26.15;47.39;99069.88;1763157;81;21275;-76
2022/07/20 14:04:46;;;;;;;5.70;2.60;;;;;;;26.03;48.15;99079.29;1763324;81;20997;-77
2022/07/20 14:07:12;;;;;;;3.60;2.60;;;;;;;25.98;48.16;99078.94;1762918;81;21045;-77
2022/07/20 14:09:39;;;;;;;4.10;2.77;;;;;;;25.93;48.31;99074.83;1763093;81;20973;-77
2022/07/20 14:12:07;;;;;;;10.80;2.70;;;;;;;25.87;49.70;99078.20;1763417;81;21146;-77
2022/07/20 14:14:34;;;;;;;4.47;3.20;;;;;;;25.75;50.64;99075.42;1762937;81;21902;-76
2022/07/20 14:17:01;;;;;;;4.78;2.52;;;;;;;25.51;51.36;99074.30;1762820;81;21590;-76
2022/07/20 14:19:29;;;;;;;5.85;3.12;;;;;;;25.26;52.56;99079.17;1763076;81;21041;-77
2022/07/20 14:21:57;;;;;;;5.05;3.40;;;;;;;25.10;53.20;99080.75;1763033;81;21095;-76
2022/07/20 14:24:23;;;;;;;3.77;2.67;;;;;;;24.99;54.30;99086.37;1762877;81;21091;-76
2022/07/20 14:26:50;;;;;;;4.10;2.75;;;;;;;24.80;54.97;99080.17;1762993;81;21107;-76
2022/07/20 14:29:18;;;;;;;4.62;2.90;;;;;;;24.65;55.12;99077.17;1763189;81;21067;-76
2022/07/20 14:31:44;;;;;;;4.37;2.92;;;;;;;24.55;55.36;99085.00;1762890;81;21064;-77
2022/07/20 14:34:11;;;;;;;5.87;4.42;;;;;;;24.42;55.16;99098.27;1763263;81;21025;-77
2022/07/20 14:36:38;;;;;;;18.95;8.40;;;;;;;24.26;55.30;99119.62;1763203;81;20992;-76
2022/07/20 14:39:05;;;;;;;13.13;6.62;;;;;;;24.12;56.05;99119.60;1762930;81;21541;-76
2022/07/20 14:41:33;;;;;;;4.22;3.80;;;;;;;24.02;56.69;99114.27;1762835;81;21055;-76
2022/07/20 14:44:01;;;;;;;8.15;3.65;;;;;;;24.02;57.00;99112.09;1762873;81;20988;-77
2022/07/20 14:46:29;;;;;;;5.22;3.60;;;;;;;24.11;57.05;99114.73;1763070;81;20988;-77
2022/07/20 14:48:55;;;;;;;8.48;3.92;;;;;;;24.31;57.31;99099.84;1763366;81;20985;-77
2022/07/20 14:51:22;;;;;;;7.20;4.62;;;;;;;24.61;56.65;99091.08;1763113;81;21136;-77
2022/07/20 14:53:48;;;;;;;8.83;3.50;;;;;;;24.94;55.60;99083.31;1763047;81;21115;-77
2022/07/20 14:56:16;;;;;;;10.03;3.58;;;;;;;25.26;54.72;99089.94;1763459;81;21068;-76
2022/07/20 14:58:43;;;;;;;3.80;3.00;;;;;;;25.50;52.89;99083.88;1762838;81;21055;-77
2022/07/20 15:01:09;;;;;;;4.67;3.52;;;;;;;25.70;52.47;99082.64;1763163;81;20989;-76
2022/07/20 15:03:36;;;;;;;4.22;3.10;;;;;;;25.89;51.67;99084.27;1763311;81;21766;-77
2022/07/20 15:06:03;;;;;;;3.65;2.98;;;;;;;26.11;50.56;99086.06;1762753;81;21183;-77